createdAt,value
2023-05-21T00:01:54.770Z,12.76
2023-05-21T00:04:21.492Z,12.73
2023-05-21T00:06:48.291Z,12.72
2023-05-21T00:09:14.982Z,12.70
2023-05-21T00:11:41.672Z,12.68
2023-05-21T00:14:08.565Z,12.66
2023-05-21T00:16:35.291Z,12.63
2023-05-21T00:19:02.581Z,12.60
2023-05-21T00:21:29.807Z,12.56
2023-05-21T00:23:56.833Z,12.53
2023-05-21T00:26:24.225Z,12.50
2023-05-21T00:28:52.374Z,12.45
2023-05-21T00:31:19.218Z,12.41
2023-05-21T00:33:46.023Z,12.36
2023-05-21T00:36:14.470Z,12.31
2023-05-21T00:38:43.759Z,12.27
2023-05-21T00:41:10.893Z,12.22
2023-05-21T00:43:40.389Z,12.16
2023-05-21T00:46:07.584Z,12.11
2023-05-21T00:48:34.540Z,12.06
2023-05-21T00:51:01.418Z,12.01
2023-05-21T00:53:28.108Z,11.96
2023-05-21T00:55:54.941Z,11.90
2023-05-21T00:58:22.078Z,11.85
2023-05-21T01:00:48.885Z,11.81
2023-05-21T01:03:16.471Z,11.77
2023-05-21T01:05:45.243Z,11.75
2023-05-21T01:08:12.864Z,11.72
2023-05-21T01:10:39.659Z,11.69
2023-05-21T01:13:06.487Z,11.67
2023-05-21T01:15:33.312Z,11.63
2023-05-21T01:18:00.172Z,11.60
2023-05-21T01:20:27.173Z,11.55
2023-05-21T01:22:54.389Z,11.51
2023-05-21T01:25:21.456Z,11.46
2023-05-21T01:27:48.303Z,11.43
2023-05-21T01:30:15.776Z,11.39
2023-05-21T01:32:45.001Z,11.35
2023-05-21T01:35:13.249Z,11.31
2023-05-21T01:37:47.012Z,11.29
2023-05-21T01:40:14.954Z,11.25
2023-05-21T01:42:43.304Z,11.22
2023-05-21T01:45:10.220Z,11.20
2023-05-21T01:47:37.458Z,11.18
2023-05-21T01:50:04.990Z,11.16
2023-05-21T01:52:31.678Z,11.16
2023-05-21T01:55:00.306Z,11.16
2023-05-21T01:57:27.239Z,11.15
2023-05-21T01:59:54.231Z,11.15
2023-05-21T02:02:21.900Z,11.15
2023-05-21T02:04:50.139Z,11.16
2023-05-21T02:07:18.403Z,11.15
2023-05-21T02:09:45.203Z,11.14
2023-05-21T02:12:11.960Z,11.11
2023-05-21T02:14:38.906Z,11.08
2023-05-21T02:17:05.783Z,11.04
2023-05-21T02:19:32.623Z,10.99
2023-05-21T02:21:59.391Z,10.94
2023-05-21T02:24:26.150Z,10.90
2023-05-21T02:26:53.024Z,10.86
2023-05-21T02:29:19.740Z,10.84
2023-05-21T02:31:46.594Z,10.83
2023-05-21T02:34:13.750Z,10.83
2023-05-21T02:36:41.625Z,10.82
2023-05-21T02:39:08.534Z,10.82
2023-05-21T02:41:35.668Z,10.82
2023-05-21T02:44:02.353Z,10.83
2023-05-21T02:46:29.089Z,10.85
2023-05-21T02:48:56.048Z,10.87
2023-05-21T02:51:22.855Z,10.89
2023-05-21T02:53:50.108Z,10.91
2023-05-21T02:56:17.443Z,10.97
2023-05-21T02:58:44.294Z,11.03
2023-05-21T03:01:11.340Z,11.12
2023-05-21T03:03:38.259Z,11.22
2023-05-21T03:06:05.065Z,11.35
2023-05-21T03:08:32.258Z,11.52
2023-05-21T03:10:59.034Z,11.67
2023-05-21T03:13:25.931Z,11.77
2023-05-21T03:15:56.330Z,11.87
2023-05-21T03:18:23.348Z,11.99
2023-05-21T03:20:50.119Z,12.13
2023-05-21T03:23:17.058Z,12.28
2023-05-21T03:25:44.066Z,12.43
2023-05-21T03:28:10.968Z,12.59
2023-05-21T03:30:46.805Z,12.77
2023-05-21T03:33:31.961Z,13.01
2023-05-21T03:35:59.042Z,13.21
2023-05-21T03:38:26.969Z,13.39
2023-05-21T03:40:54.458Z,13.54
2023-05-21T03:43:21.671Z,13.71
2023-05-21T03:45:48.433Z,13.87
2023-05-21T03:48:42.986Z,14.01
2023-05-21T03:51:10.367Z,14.14
2023-05-21T03:53:37.167Z,14.28
2023-05-21T03:56:04.084Z,14.44
2023-05-21T03:58:31.055Z,14.60
2023-05-21T04:00:58.694Z,14.76
2023-05-21T04:03:25.619Z,14.98
2023-05-21T04:05:52.853Z,15.21
2023-05-21T04:08:19.623Z,15.49
2023-05-21T04:10:47.536Z,15.78
2023-05-21T04:13:15.431Z,16.08
2023-05-21T04:15:43.716Z,16.37
2023-05-21T04:18:10.932Z,16.69
2023-05-21T04:20:37.724Z,17.07
2023-05-21T04:23:05.028Z,17.43
2023-05-21T04:25:31.804Z,17.73
2023-05-21T04:27:58.655Z,17.94
2023-05-21T04:30:25.535Z,18.15
2023-05-21T04:32:54.880Z,18.35
2023-05-21T04:35:21.823Z,18.50
2023-05-21T04:37:48.603Z,18.66
2023-05-21T04:40:18.657Z,18.82
2023-05-21T04:42:51.373Z,18.92
2023-05-21T04:45:19.054Z,19.01
2023-05-21T04:47:46.149Z,19.12
2023-05-21T04:50:12.977Z,19.35
2023-05-21T04:52:40.341Z,19.48
2023-05-21T04:55:07.539Z,19.54
2023-05-21T04:57:34.271Z,19.58
2023-05-21T05:00:01.047Z,19.68
2023-05-21T05:02:28.714Z,19.80
2023-05-21T05:04:55.469Z,19.93
2023-05-21T05:07:22.798Z,20.08
2023-05-21T05:09:49.763Z,20.32
2023-05-21T05:12:16.661Z,20.52
2023-05-21T05:14:43.803Z,20.78
2023-05-21T05:17:14.667Z,21.03
2023-05-21T05:19:43.069Z,21.26
2023-05-21T05:22:11.829Z,21.50
2023-05-21T05:24:40.092Z,21.74
2023-05-21T05:27:06.856Z,21.91
2023-05-21T05:29:33.622Z,21.97
2023-05-21T05:32:00.478Z,22.01
2023-05-21T05:34:27.244Z,22.11
2023-05-21T05:36:54.115Z,22.18
2023-05-21T05:39:20.806Z,22.23
2023-05-21T05:41:48.190Z,22.35
2023-05-21T05:44:15.112Z,22.40
2023-05-21T05:46:43.579Z,22.48
2023-05-21T05:49:10.705Z,22.67
2023-05-21T05:51:37.390Z,22.74
2023-05-21T05:54:04.158Z,22.69
2023-05-21T05:56:30.995Z,22.70
2023-05-21T05:58:58.621Z,22.82
2023-05-21T06:01:26.303Z,22.93
2023-05-21T06:03:53.232Z,23.04
2023-05-21T06:06:20.635Z,23.17
2023-05-21T06:08:47.601Z,23.26
2023-05-21T06:11:17.240Z,23.38
2023-05-21T06:13:44.796Z,23.46
2023-05-21T06:16:11.736Z,23.53
2023-05-21T06:18:38.678Z,23.77
2023-05-21T06:21:05.454Z,24.01
2023-05-21T06:23:32.745Z,24.09
2023-05-21T06:26:00.026Z,24.11
2023-05-21T06:28:26.988Z,24.25
2023-05-21T06:30:53.901Z,24.36
2023-05-21T06:33:21.647Z,24.31
2023-05-21T06:35:48.612Z,24.29
2023-05-21T06:38:15.500Z,24.43
2023-05-21T06:40:44.684Z,24.56
2023-05-21T06:43:12.491Z,24.64
2023-05-21T06:45:59.218Z,24.71
2023-05-21T06:48:38.051Z,24.79
2023-05-21T06:51:05.656Z,24.78
2023-05-21T06:53:33.248Z,24.77
2023-05-21T06:56:00.514Z,24.83
2023-05-21T06:58:35.702Z,24.80
2023-05-21T07:01:02.698Z,24.71
2023-05-21T07:03:29.575Z,24.71
2023-05-21T07:05:57.342Z,24.82
2023-05-21T07:08:24.100Z,25.03
2023-05-21T07:10:57.224Z,25.28
2023-05-21T07:13:24.486Z,25.36
2023-05-21T07:15:51.291Z,25.33
2023-05-21T07:18:18.775Z,25.28
2023-05-21T07:20:45.618Z,25.29
2023-05-21T07:23:14.305Z,25.38
2023-05-21T07:25:41.040Z,25.62
2023-05-21T07:28:07.789Z,25.95
2023-05-21T07:30:35.457Z,26.15
2023-05-21T07:33:02.410Z,26.31
2023-05-21T07:35:29.279Z,26.48
2023-05-21T07:37:56.514Z,26.68
2023-05-21T07:40:23.445Z,26.92
2023-05-21T07:42:50.822Z,27.07
2023-05-21T07:45:18.424Z,27.19
2023-05-21T07:47:45.254Z,27.40
2023-05-21T07:50:12.361Z,27.55
2023-05-21T07:52:39.240Z,27.61
2023-05-21T07:55:06.434Z,27.56
2023-05-21T07:57:35.500Z,27.52
2023-05-21T08:00:09.599Z,27.55
2023-05-21T08:02:42.017Z,27.73
2023-05-21T08:05:10.372Z,27.88
2023-05-21T08:07:38.046Z,28.06
2023-05-21T08:10:05.210Z,28.09
2023-05-21T08:12:31.961Z,28.03
2023-05-21T08:14:59.349Z,27.99
2023-05-21T08:17:28.459Z,28.02
2023-05-21T08:19:55.246Z,28.32
2023-05-21T08:22:22.212Z,28.71
2023-05-21T08:24:49.497Z,29.01
2023-05-21T08:27:16.301Z,29.15
2023-05-21T08:29:43.186Z,29.17
2023-05-21T08:32:10.585Z,29.04
2023-05-21T08:34:37.458Z,28.89
2023-05-21T08:37:24.460Z,29.02
2023-05-21T08:40:14.005Z,29.28
2023-05-21T08:42:45.747Z,29.41
2023-05-21T08:45:22.483Z,29.35
2023-05-21T08:47:53.326Z,29.41
2023-05-21T08:50:20.438Z,29.71
2023-05-21T08:52:47.395Z,29.97
2023-05-21T08:55:14.221Z,30.21
2023-05-21T08:57:42.539Z,30.31
2023-05-21T09:00:09.722Z,30.31
2023-05-21T09:06:17.335Z,30.42
2023-05-21T09:08:47.754Z,30.62
2023-05-21T09:11:31.980Z,30.86
2023-05-21T09:13:58.783Z,30.96
2023-05-21T09:16:31.636Z,30.97
2023-05-21T09:18:58.801Z,30.92
2023-05-21T09:21:29.829Z,30.80
2023-05-21T09:23:59.935Z,30.76
2023-05-21T09:26:26.850Z,30.94
2023-05-21T09:28:56.915Z,31.26
2023-05-21T09:31:24.237Z,31.34
2023-05-21T09:33:51.084Z,31.17
2023-05-21T09:36:20.271Z,31.31
2023-05-21T09:38:51.923Z,31.39
2023-05-21T09:41:21.876Z,31.60
2023-05-21T09:43:49.212Z,31.97
2023-05-21T09:46:20.906Z,32.12
2023-05-21T09:48:47.662Z,31.97
2023-05-21T09:51:16.097Z,31.87
2023-05-21T09:53:53.722Z,32.05
2023-05-21T09:56:22.792Z,32.46
2023-05-21T09:58:51.388Z,32.81
2023-05-21T10:01:19.953Z,32.82
2023-05-21T10:03:50.581Z,32.60
2023-05-21T10:06:17.455Z,32.57
2023-05-21T10:08:45.100Z,32.56
2023-05-21T10:11:11.803Z,32.49
2023-05-21T10:13:39.837Z,32.24
2023-05-21T10:16:06.641Z,32.05
2023-05-21T10:18:33.415Z,31.76
2023-05-21T10:21:00.870Z,31.47
2023-05-21T10:23:27.627Z,31.36
2023-05-21T10:25:54.368Z,31.40
2023-05-21T10:28:21.111Z,31.45
2023-05-21T10:30:48.001Z,31.45
2023-05-21T10:33:17.820Z,31.16
2023-05-21T10:35:44.993Z,30.52
2023-05-21T10:38:11.946Z,29.47
2023-05-21T10:40:38.852Z,28.47
2023-05-21T10:43:05.713Z,27.65
2023-05-21T10:45:51.402Z,27.12
2023-05-21T10:48:47.586Z,26.46
2023-05-21T10:51:20.369Z,25.82
2023-05-21T10:53:53.174Z,25.34
2023-05-21T10:56:23.157Z,24.94
2023-05-21T10:59:08.871Z,24.61
2023-05-21T11:01:36.677Z,24.30
2023-05-21T11:04:06.721Z,24.06
2023-05-21T11:06:33.456Z,23.89
2023-05-21T11:09:01.894Z,23.78
2023-05-21T11:11:48.416Z,23.70
2023-05-21T11:14:36.842Z,23.61
2023-05-21T11:17:06.685Z,23.51
2023-05-21T11:19:43.433Z,23.45
2023-05-21T11:22:30.472Z,23.36
2023-05-21T11:24:58.740Z,23.22
2023-05-21T11:27:38.157Z,23.09
2023-05-21T11:30:31.616Z,23.00
2023-05-21T11:33:10.061Z,22.96
2023-05-21T11:35:46.212Z,22.96
2023-05-21T11:38:12.991Z,22.85
2023-05-21T11:40:49.899Z,22.77
2023-05-21T11:43:16.644Z,22.71
2023-05-21T11:45:47.200Z,22.70
2023-05-21T11:48:14.407Z,22.68
2023-05-21T11:50:42.474Z,22.68
2023-05-21T11:53:09.290Z,22.66
2023-05-21T11:55:43.733Z,22.60
2023-05-21T11:58:13.535Z,22.48
2023-05-21T12:00:40.404Z,22.36
2023-05-21T12:03:08.441Z,22.30
2023-05-21T12:05:45.513Z,22.27
2023-05-21T12:08:12.242Z,22.25
2023-05-21T12:10:40.161Z,22.18
2023-05-21T12:13:06.925Z,22.06
2023-05-21T12:15:33.727Z,21.89
2023-05-21T12:18:01.273Z,21.83
2023-05-21T12:20:28.691Z,21.74
2023-05-21T12:22:56.850Z,21.66
2023-05-21T12:25:23.579Z,21.63
2023-05-21T12:27:57.909Z,21.63
2023-05-21T12:30:25.457Z,21.62
2023-05-21T12:32:52.237Z,21.63
2023-05-21T12:35:23.103Z,21.59
2023-05-21T12:37:51.090Z,21.56
2023-05-21T12:40:18.085Z,21.55
2023-05-21T12:42:44.872Z,21.56
2023-05-21T12:45:11.816Z,21.54
2023-05-21T12:47:38.680Z,21.54
2023-05-21T12:50:08.405Z,21.54
2023-05-21T12:52:35.169Z,21.53
2023-05-21T12:55:01.934Z,21.52
2023-05-21T12:57:35.086Z,21.51
2023-05-21T13:00:01.889Z,21.52
2023-05-21T13:02:29.866Z,21.52
2023-05-21T13:05:00.520Z,21.51
2023-05-21T13:07:28.459Z,21.49
2023-05-21T13:09:55.581Z,21.51
2023-05-21T13:12:22.878Z,21.55
2023-05-21T13:14:50.174Z,21.63
2023-05-21T13:17:17.158Z,21.70
2023-05-21T13:19:44.409Z,21.74
2023-05-21T13:22:11.255Z,21.74
2023-05-21T13:24:39.785Z,21.79
2023-05-21T13:27:06.881Z,21.83
2023-05-21T13:29:34.333Z,21.84
2023-05-21T13:32:01.116Z,21.80
2023-05-21T13:34:27.935Z,21.71
2023-05-21T13:36:54.712Z,21.65
2023-05-21T13:39:26.744Z,21.57
2023-05-21T13:41:53.657Z,21.51
2023-05-21T13:44:20.421Z,21.48
2023-05-21T13:46:47.255Z,21.44
2023-05-21T13:49:13.984Z,21.39
2023-05-21T13:51:40.778Z,21.34
2023-05-21T13:54:07.517Z,21.29
2023-05-21T13:56:34.371Z,21.21
2023-05-21T13:59:01.478Z,21.13
2023-05-21T14:01:28.496Z,21.08
2023-05-21T14:03:55.469Z,21.02
2023-05-21T14:06:22.303Z,20.96
2023-05-21T14:08:49.018Z,20.88
2023-05-21T14:11:15.833Z,20.85
2023-05-21T14:13:43.334Z,20.83
2023-05-21T14:16:10.068Z,20.83
2023-05-21T14:18:36.849Z,20.86
2023-05-21T14:21:03.612Z,20.88
2023-05-21T14:23:30.415Z,20.91
2023-05-21T14:25:57.353Z,20.92
2023-05-21T14:28:25.737Z,20.91
2023-05-21T14:30:52.509Z,20.89
2023-05-21T14:33:19.265Z,20.88
2023-05-21T14:35:47.918Z,20.86
2023-05-21T14:38:14.730Z,20.82
2023-05-21T14:40:41.581Z,20.78
2023-05-21T14:43:08.400Z,20.73
2023-05-21T14:45:35.568Z,20.67
2023-05-21T14:48:08.268Z,20.61
2023-05-21T14:50:35.888Z,20.51
2023-05-21T14:53:09.517Z,20.42
2023-05-21T14:55:37.240Z,20.36
2023-05-21T14:58:07.185Z,20.33
2023-05-21T15:00:34.150Z,20.29
2023-05-21T15:03:01.207Z,20.27
2023-05-21T15:05:28.197Z,20.25
2023-05-21T15:07:58.114Z,20.24
2023-05-21T15:10:25.415Z,20.21
2023-05-21T15:12:52.193Z,20.15
2023-05-21T15:15:20.925Z,20.11
2023-05-21T15:17:48.062Z,20.04
2023-05-21T15:20:14.973Z,19.99
2023-05-21T15:22:41.676Z,19.96
2023-05-21T15:25:08.606Z,19.94
2023-05-21T15:27:35.378Z,19.91
2023-05-21T15:30:02.255Z,19.88
2023-05-21T15:32:29.145Z,19.86
2023-05-21T15:34:55.901Z,19.84
2023-05-21T15:37:22.699Z,19.81
2023-05-21T15:39:53.451Z,19.80
2023-05-21T15:42:20.169Z,19.79
2023-05-21T15:44:47.397Z,19.81
2023-05-21T15:47:14.259Z,19.86
2023-05-21T15:49:41.004Z,19.92
2023-05-21T15:52:07.689Z,19.95
2023-05-21T15:54:34.394Z,19.91
2023-05-21T15:57:01.091Z,19.85
2023-05-21T15:59:27.909Z,19.79
2023-05-21T16:01:54.647Z,19.71
2023-05-21T16:04:21.438Z,19.66
2023-05-21T16:06:48.145Z,19.61
2023-05-21T16:09:15.026Z,19.56
2023-05-21T16:11:43.968Z,19.51
2023-05-21T16:14:11.066Z,19.46
2023-05-21T16:16:38.382Z,19.43
2023-05-21T16:19:05.316Z,19.38
2023-05-21T16:21:32.390Z,19.34
2023-05-21T16:23:59.508Z,19.30
2023-05-21T16:26:26.290Z,19.27
2023-05-21T16:28:53.428Z,19.22
2023-05-21T16:31:20.117Z,19.19
2023-05-21T16:33:46.903Z,19.16
2023-05-21T16:36:14.372Z,19.12
2023-05-21T16:38:43.603Z,19.08
2023-05-21T16:41:10.383Z,19.04
2023-05-21T16:43:37.320Z,19.00
2023-05-21T16:46:04.111Z,18.96
2023-05-21T16:48:30.973Z,18.91
2023-05-21T16:50:57.749Z,18.87
2023-05-21T16:53:24.539Z,18.82
2023-05-21T16:55:51.275Z,18.80
2023-05-21T16:58:19.084Z,18.78
2023-05-21T17:00:46.092Z,18.76
2023-05-21T17:03:13.045Z,18.76
2023-05-21T17:05:39.969Z,18.75
2023-05-21T17:08:07.590Z,18.72
2023-05-21T17:10:34.496Z,18.68
2023-05-21T17:13:09.780Z,18.63
2023-05-21T17:15:45.046Z,18.57
2023-05-21T17:18:12.272Z,18.51
2023-05-21T17:20:39.231Z,18.44
2023-05-21T17:23:06.495Z,18.37
2023-05-21T17:25:34.547Z,18.31
2023-05-21T17:28:02.134Z,18.26
2023-05-21T17:30:28.976Z,18.19
2023-05-21T17:32:56.062Z,18.15
2023-05-21T17:35:23.071Z,18.08
2023-05-21T17:37:50.065Z,18.01
2023-05-21T17:40:20.426Z,17.95
2023-05-21T17:42:47.510Z,17.88
2023-05-21T17:45:14.870Z,17.81
2023-05-21T17:47:42.178Z,17.75
2023-05-21T17:50:09.274Z,17.67
2023-05-21T17:52:36.153Z,17.60
2023-05-21T17:55:03.412Z,17.52
2023-05-21T17:57:30.602Z,17.45
2023-05-21T17:59:57.636Z,17.38
2023-05-21T18:02:24.700Z,17.27
2023-05-21T18:04:51.605Z,17.18
2023-05-21T18:07:18.635Z,17.12
2023-05-21T18:09:45.566Z,17.04
2023-05-21T18:12:12.494Z,16.98
2023-05-21T18:14:39.343Z,16.91
2023-05-21T18:17:06.965Z,16.85
2023-05-21T18:19:33.870Z,16.78
2023-05-21T18:22:00.780Z,16.71
2023-05-21T18:24:27.739Z,16.63
2023-05-21T18:26:54.714Z,16.56
2023-05-21T18:29:21.632Z,16.49
2023-05-21T18:31:48.502Z,16.42
2023-05-21T18:34:16.843Z,16.34
2023-05-21T18:36:43.619Z,16.26
2023-05-21T18:39:10.333Z,16.17
2023-05-21T18:41:37.399Z,16.09
2023-05-21T18:44:06.030Z,16.00
2023-05-21T18:46:32.954Z,15.92
2023-05-21T18:49:00.036Z,15.86
2023-05-21T18:51:26.768Z,15.79
2023-05-21T18:53:53.653Z,15.75
2023-05-21T18:56:21.930Z,15.70
2023-05-21T18:58:48.831Z,15.64
2023-05-21T19:01:16.135Z,15.59
2023-05-21T19:03:43.043Z,15.54
2023-05-21T19:06:09.894Z,15.48
2023-05-21T19:08:36.629Z,15.42
2023-05-21T19:11:03.400Z,15.37
2023-05-21T19:13:30.243Z,15.32
2023-05-21T19:15:58.505Z,15.28
2023-05-21T19:18:30.417Z,15.25
2023-05-21T19:20:57.401Z,15.20
2023-05-21T19:23:24.905Z,15.16
2023-05-21T19:25:51.827Z,15.11
2023-05-21T19:28:18.943Z,15.06
2023-05-21T19:30:46.411Z,15.02
2023-05-21T19:33:13.652Z,15.00
2023-05-21T19:35:42.043Z,14.99
2023-05-21T19:38:11.986Z,14.99
2023-05-21T19:40:38.919Z,14.99
2023-05-21T19:43:05.898Z,14.98
2023-05-21T19:45:32.726Z,14.98
2023-05-21T19:48:00.059Z,14.96
2023-05-21T19:50:28.648Z,14.93
2023-05-21T19:52:57.166Z,14.91
2023-05-21T19:55:24.729Z,14.88
2023-05-21T19:57:51.800Z,14.83
2023-05-21T20:00:18.904Z,14.79
2023-05-21T20:02:47.435Z,14.76
2023-05-21T20:05:14.530Z,14.73
2023-05-21T20:07:41.387Z,14.69
2023-05-21T20:10:08.788Z,14.67
2023-05-21T20:12:35.801Z,14.64
2023-05-21T20:15:02.747Z,14.62
2023-05-21T20:17:30.653Z,14.56
2023-05-21T20:19:59.095Z,14.48
2023-05-21T20:22:25.860Z,14.42
2023-05-21T20:24:53.022Z,14.36
2023-05-21T20:27:20.014Z,14.30
2023-05-21T20:29:46.805Z,14.23
2023-05-21T20:32:13.543Z,14.15
2023-05-21T20:34:54.387Z,14.06
2023-05-21T20:37:28.992Z,13.97
2023-05-21T20:39:58.625Z,13.90
2023-05-21T20:42:34.941Z,13.82
2023-05-21T20:45:03.073Z,13.74
2023-05-21T20:47:30.177Z,13.66
2023-05-21T20:49:57.955Z,13.54
2023-05-21T20:52:25.018Z,13.37
2023-05-21T20:54:54.664Z,13.16
2023-05-21T20:57:22.536Z,13.03
2023-05-21T20:59:49.399Z,12.93
2023-05-21T21:02:16.206Z,12.84
2023-05-21T21:04:42.996Z,12.74
2023-05-21T21:07:10.169Z,12.65
2023-05-21T21:09:37.337Z,12.53
2023-05-21T21:12:14.367Z,12.46
2023-05-21T21:14:48.191Z,12.43
2023-05-21T21:17:14.925Z,12.42
2023-05-21T21:19:41.620Z,12.45
2023-05-21T21:22:08.325Z,12.48
2023-05-21T21:24:35.053Z,12.48
2023-05-21T21:27:01.839Z,12.45
2023-05-21T21:29:28.543Z,12.40
2023-05-21T21:31:55.408Z,12.30
2023-05-21T21:34:24.215Z,12.23
2023-05-21T21:36:51.215Z,12.19
2023-05-21T21:39:17.980Z,12.18
2023-05-21T21:41:44.727Z,12.11
2023-05-21T21:44:11.543Z,12.03
2023-05-21T21:46:39.124Z,11.97
2023-05-21T21:49:05.882Z,11.95
2023-05-21T21:51:32.667Z,11.97
2023-05-21T21:53:59.446Z,11.99
2023-05-21T21:56:26.235Z,12.02
2023-05-21T21:58:52.955Z,12.05
2023-05-21T22:01:19.727Z,12.09
2023-05-21T22:03:46.434Z,12.13
2023-05-21T22:06:13.128Z,12.14
2023-05-21T22:08:39.914Z,12.10
2023-05-21T22:11:06.675Z,12.05
2023-05-21T22:13:34.359Z,12.00
2023-05-21T22:16:02.091Z,11.93
2023-05-21T22:18:40.201Z,11.87
2023-05-21T22:21:09.554Z,11.79
2023-05-21T22:23:36.983Z,11.72
2023-05-21T22:26:03.896Z,11.69
2023-05-21T22:28:30.806Z,11.67
2023-05-21T22:30:57.973Z,11.67
2023-05-21T22:33:24.818Z,11.67
2023-05-21T22:35:51.602Z,11.65
2023-05-21T22:38:18.304Z,11.62
2023-05-21T22:40:45.056Z,11.58
2023-05-21T22:43:11.825Z,11.53
2023-05-21T22:45:38.553Z,11.49
2023-05-21T22:48:08.480Z,11.43
2023-05-21T22:50:35.931Z,11.38
2023-05-21T22:53:02.803Z,11.33
2023-05-21T22:55:29.623Z,11.28
2023-05-21T22:57:56.456Z,11.24
2023-05-21T23:00:23.231Z,11.22
2023-05-21T23:02:52.144Z,11.18
2023-05-21T23:05:20.739Z,11.14
2023-05-21T23:07:47.480Z,11.09
2023-05-21T23:10:14.186Z,11.02
2023-05-21T23:12:41.416Z,10.98
2023-05-21T23:15:09.743Z,10.98
2023-05-21T23:17:37.313Z,11.00
2023-05-21T23:20:04.764Z,11.03
2023-05-21T23:22:31.726Z,11.04
2023-05-21T23:24:58.516Z,11.04
2023-05-21T23:27:25.309Z,11.00
2023-05-21T23:29:52.018Z,10.92
2023-05-21T23:32:18.779Z,10.83
2023-05-21T23:34:45.508Z,10.75
2023-05-21T23:37:12.229Z,10.68
2023-05-21T23:39:38.976Z,10.58
2023-05-21T23:42:06.057Z,10.47
2023-05-21T23:44:33.189Z,10.38
2023-05-21T23:46:59.893Z,10.32
2023-05-21T23:49:26.618Z,10.24
2023-05-21T23:51:53.318Z,10.15
2023-05-21T23:54:20.158Z,10.06
2023-05-21T23:56:47.024Z,9.98
2023-05-21T23:59:14.621Z,9.91
